Terminal Aerodrome Forecast
Issued by NWS

Current Version | Previous Version | Text Only | Print | Product List | Glossary On
Versions: 1 2 3 4 5 6 7 8 9 10 11 12 13 14 15 16 17 18
000
FTUS43 KLSX 161720
TAFUIN
TAF
KUIN 161720Z 1618/1718 21013G23KT P6SM SKC
     FM162200 21008KT P6SM SKC
     FM171200 20007KT P6SM -RA OVC090=

USA.gov is the U.S. government's official web portal to all federal, state and local government web resources and services.